x

Buoy A01 - Mass. Bay/stellwagen (44029) Wave Buoy

6:04 - Tue 28th Mar 2017 All times are EDT. -4 hours from GMT.

  • Sig Wave height 3.0ft
  • Peak Period 7s
  • Wind
    7mph, 9mph gusts
  • Sea Temp 39°f
  • Air Temp 39°f
  • Sea Pressure 1013.9mb
  • Buoy A01 - Mass. Bay/stellwagen
  • Buoy A01 - Mass. Bay/stellwagen

More Historic Weather Station data

Upgrade to MSW Pro to gain access to the past 30 days of data for over 8000 Wavebouys and Weather Stations around the globe.

Join Pro

Comparision Forecast

View Surf forecast
   
mar. 03/28 6:04 3ft 7s 7 9 mph 1013.9mb 39f 39f
5:04 3.5ft 7s 4
mph
1014.5mb 39f 39f
4:04 3.5ft 7s 2 4 mph 1014.9mb 39f 39f
10:04 3.5ft 7s 4 7 mph 1016.2mb 39f 38f
9:04 4ft 7s 7
mph
1016.4mb 39f 38f
8:04 4.5ft 8s 4
mph
1016.6mb 39f 38f
7:04 4.5ft 7s 9 11 mph 1015.7mb 39f 37f
6:04 4.5ft 7s 13
mph
1015mb 39f 37f
5:04 4ft 8s 9 11 mph 1015.3mb 39f 37f
4:04 4ft 7s 11
mph
1015.4mb 39f 37f
3:04 4.5ft 7s 11 16 mph 1015.6mb 39f 36f
2:04 4ft 7s 13 18 mph 1016mb 39f 37f
1:04 4.5ft 7s 13 18 mph 1015.5mb 39f 37f
12:04 4.5ft 7s 13 16 mph 1015.7mb 39f 37f
lun. 03/27 11:04 4.5ft 7s 16 18 mph 1015.5mb 39f 37f
10:04 4.5ft 7s 20 25 mph 1015.4mb 39f 37f
9:04 4.5ft 7s 20 25 mph 1014.9mb 39f 38f
8:04 5ft 7s 20 25 mph 1015.1mb 39f 38f
7:04 5ft 8s 13 16 mph 1014.7mb 39f 40f
6:04 6ft 7s 7 9 mph 1014.6mb 39f 40f
5:04 5.5ft 7s 4 7 mph 1014.5mb 39f 40f
4:04  -   -  7 9 mph 1015.1mb 39f 40f
3:04 6ft 7s 4 7 mph 1015.7mb 39f 41f
2:04  -   -  4 7 mph 1016.4mb 39f 41f
1:04 7ft 7s 16 18 mph 1017.1mb 39f 41f
12:04 6ft 6s 7 9 mph 1018.7mb 39f 41f
11:04  -   -  13 16 mph 1019.5mb 39f 41f
10:04 5ft 5s 13 16 mph 1020.2mb 39f 40f
9:04 4.5ft 5s 16 18 mph 1021.2mb 39f 40f
8:04  -   -  16 20 mph 1022.3mb 39f 39f
7:04 3.5ft 5s 16 18 mph 1023.2mb 39f 39f
6:04 3.5ft 4s 16 18 mph 1024.1mb 39f 38f
5:04 3ft 5s 16 18 mph 1025mb 39f 38f
4:04 3ft 6s 13 16 mph 1025.2mb 39f 39f
3:04 3ft 5s 11 13 mph 1026.3mb 39f 39f
2:04  -   -  13 16 mph 1026.8mb 39f 38f
1:04 3.5ft 4s 11 13 mph 1027.6mb 39f 38f
12:04 3.5ft 6s 11 13 mph 1028.4mb 39f 38f
dim. 03/26 11:04 3ft 6s 13 16 mph 1028.7mb 39f 38f
10:04 3ft 6s 13 16 mph 1029.2mb 39f 38f
9:04 3.5ft 6s 11 13 mph 1030.3mb 39f 38f
8:04 3.5ft 7s 11 13 mph 1030.6mb 39f 37f
7:04 4.5ft 6s 11 13 mph 1031.1mb 39f 37f
6:04  -   -  11 13 mph 1031.6mb 39f 37f
5:04 4ft 6s 11 13 mph 1031.9mb 39f 36f
4:04 4.5ft 5s 11 13 mph 1032.3mb 39f 36f
3:04 3.5ft 5s 11 13 mph 1032.4mb 39f 36f
2:04 3ft 5s 11 16 mph 1033.1mb 39f 36f
1:04 3.5ft 5s 13 16 mph 1033.2mb 39f 37f
12:04 4.5ft 6s 13 16 mph 1033.5mb 39f 37f
11:04 4.5ft 5s 16 18 mph 1033.5mb 39f 37f
10:04 4.5ft 5s 16 20 mph 1032.9mb 39f 38f
9:04 4.5ft 5s 16 18 mph 1032.5mb 39f 38f
8:04 5ft 5s 16 20 mph 1032.6mb 39f 38f
7:04 4.5ft 5s 18 22 mph 1032.2mb 39f 38f
6:04 4.5ft 6s 20 22 mph 1031.6mb 39f 38f
5:04 3.5ft 5s 18 20 mph 1031.2mb 39f 38f
4:04  -   -  18 22 mph 1030.3mb 39f 38f
2:04 1ft 8s 13 18 mph 1029.7mb 39f 38f
1:04  -   -  13 16 mph 1029.2mb 39f 37f
12:04 1ft 9s 11 13 mph 1028.9mb 39f 37f
sam. 03/25 11:04 1ft 8s 7 9 mph 1028.6mb 39f 37f
10:04 1.3ft 5s 9 11 mph 1028mb 39f 37f
9:04 1.3ft 5s 7 9 mph 1027.7mb 39f 37f
8:04 2ft 5s 9 11 mph 1026.8mb 39f 37f
7:04 2ft 4s 4 7 mph 1025.9mb 39f 36f
6:04 1.6ft 4s 7 9 mph 1025.9mb 39f 36f
5:04 1.6ft 4s 7 9 mph 1025.1mb 39f 35f
4:04 1.6ft 4s 4
mph
1023.6mb 39f 35f
3:04 1.6ft 4s 13 16 mph 1025.1mb 39f 35f
2:04 1.3ft 4s 16 20 mph 1024.4mb 39f 36f
1:04 1.6ft 4s 11 13 mph 1023.5mb 39f 38f
12:04 1.6ft 3s 11 13 mph 1022.8mb 39f 38f
11:04 1.3ft 3s 16 18 mph 1022.1mb 39f 38f
10:04 1ft 6s 9 11 mph 1022.4mb 39f 39f
9:04 1ft 6s 11
mph
1021.2mb 39f 39f
8:04 0.7ft  -  9
mph
1020.5mb 39f 39f
7:04 1ft 6s 11 13 mph 1019.7mb 39f 39f
6:04 1.6ft 6s 9 11 mph 1018.3mb 39f 40f
5:04 1.3ft 6s 11 13 mph 1018.4mb 39f 39f
4:04 1.6ft 7s 9 11 mph 1017.5mb 39f 39f
3:04 2ft 7s 7
mph
1016.6mb 39f 42f
2:04  -   -  7 9 mph 1016.7mb 39f 41f
12:04 2.5ft 4s 7
mph
1016.7mb 39f 41f